Lindenwald, Ohio
Current Conditions -  °F | °C
As of 4:53 AM on Wednesday 22 Oct 2014 (Local Time) from KHAO Reporting Station
Overcast Overcast  
Wind Chill: 43°   Ceiling: 3800
Heat Index: 46°   Visibility: 10mi
Dew Point: 39°   Wind: 6mph
Humidity: 76%   Direction: 340°NNW
Pressure: 30.22"   Gusts: NA
Location:  39.3622°N, 84.5372°W
Report Text: KHAO 220853Z AUTO 34005KT 10SM OVC038 08/04 A3022 RMK AO2 SLP237 T00780039 53007
Loading
Personal Weather Stations






























Interactive Weather Map
Tropical Storm Tracking
New forecast layout! Learn more

10-Day Weather Forecast

Advertisements
Track Severe Weather on mobile